Time;durP1;ratioP1;P1;durP2;ratioP2;P2;SDS_P1;SDS_P2;PMS_P1;PMS_P2;Temp;Humidity;BMP_temperature;BMP_pressure;BME280_temperature;BME280_humidity;BME280_pressure;Samples;Min_cycle;Max_cycle;Signal;HPM_P1;HPM_P2
2024/01/04 00:01:34;;;;;;;2.58;1.40;;;9.60;99.90;;;;;;6197089;23;20004;-67
2024/01/04 00:04:00;;;;;;;1.65;1.30;;;9.60;99.90;;;;;;6197063;23;20086;-68
2024/01/04 00:06:26;;;;;;;2.28;1.52;;;9.50;99.90;;;;;;6188396;23;20075;-68
2024/01/04 00:08:51;;;;;;;2.70;1.95;;;9.50;99.90;;;;;;6193191;23;20165;-67
2024/01/04 00:11:17;;;;;;;3.63;1.38;;;9.60;99.90;;;;;;6191520;23;20008;-68
2024/01/04 00:13:43;;;;;;;3.33;1.13;;;9.50;99.90;;;;;;6197426;23;20020;-66
2024/01/04 00:16:10;;;;;;;1.58;1.17;;;9.40;99.90;;;;;;6195873;23;20005;-68
2024/01/04 00:18:36;;;;;;;2.40;1.10;;;9.40;99.90;;;;;;6194764;23;20005;-71
2024/01/04 00:21:02;;;;;;;3.38;1.20;;;9.30;99.90;;;;;;6184546;23;20008;-69
2024/01/04 00:23:31;;;;;;;1.85;1.23;;;9.40;99.90;;;;;;6187893;23;20094;-70
2024/01/04 00:25:57;;;;;;;1.77;1.10;;;9.40;99.90;;;;;;6188404;23;20005;-70
2024/01/04 00:28:23;;;;;;;2.00;1.30;;;9.30;99.90;;;;;;6195371;23;20637;-68
2024/01/04 00:30:49;;;;;;;3.38;1.50;;;9.30;99.90;;;;;;6197197;23;20024;-70
2024/01/04 00:33:15;;;;;;;1.05;0.95;;;9.40;99.90;;;;;;6195598;23;20062;-69
2024/01/04 00:35:40;;;;;;;1.77;1.30;;;9.40;99.90;;;;;;6194147;23;20035;-68
2024/01/04 00:38:06;;;;;;;1.15;0.90;;;9.40;99.90;;;;;;6196162;23;20289;-68
2024/01/04 00:40:33;;;;;;;2.13;1.10;;;9.40;99.90;;;;;;6197866;23;20288;-68
2024/01/04 00:42:59;;;;;;;3.28;1.50;;;9.50;99.90;;;;;;6195914;23;20013;-68
2024/01/04 00:45:25;;;;;;;1.40;1.15;;;9.50;99.90;;;;;;6196029;23;20100;-68
2024/01/04 00:47:50;;;;;;;1.35;1.00;;;9.50;99.90;;;;;;6197248;23;20075;-69
2024/01/04 00:50:16;;;;;;;2.58;1.08;;;9.40;99.90;;;;;;6195950;23;20169;-70
2024/01/04 00:52:42;;;;;;;2.13;1.17;;;9.50;99.90;;;;;;6196024;23;20012;-70
2024/01/04 00:55:08;;;;;;;3.67;1.20;;;9.70;99.90;;;;;;6194243;23;20039;-69
2024/01/04 00:57:34;;;;;;;2.38;1.13;;;9.80;99.90;;;;;;6195620;23;20410;-69
2024/01/04 00:59:59;;;;;;;2.00;0.98;;;9.70;99.90;;;;;;6195774;23;20004;-69
2024/01/04 01:02:25;;;;;;;4.55;2.53;;;9.80;99.90;;;;;;6197572;23;20016;-69
2024/01/04 01:04:50;;;;;;;1.83;1.17;;;9.90;99.90;;;;;;6196912;23;20112;-69
2024/01/04 01:07:16;;;;;;;1.88;1.35;;;9.90;99.90;;;;;;6197169;23;20446;-69
2024/01/04 01:09:42;;;;;;;0.82;0.60;;;10.00;99.90;;;;;;6196289;23;20104;-69
2024/01/04 01:12:07;;;;;;;1.80;0.70;;;10.10;99.90;;;;;;6198497;23;20705;-69
2024/01/04 01:14:33;;;;;;;2.78;0.68;;;10.20;99.90;;;;;;6195097;23;20058;-70
2024/01/04 01:16:59;;;;;;;2.70;1.27;;;10.20;99.90;;;;;;6198014;23;20015;-70
2024/01/04 01:19:24;;;;;;;2.22;1.60;;;10.20;99.90;;;;;;6198485;23;20005;-71
2024/01/04 01:21:50;;;;;;;1.75;0.70;;;10.30;99.90;;;;;;6193255;23;20013;-70
2024/01/04 01:24:16;;;;;;;1.50;1.00;;;10.30;99.90;;;;;;6196873;23;20490;-69
2024/01/04 01:26:43;;;;;;;1.08;0.90;;;10.20;99.90;;;;;;6195968;23;20462;-70
2024/01/04 01:29:09;;;;;;;1.10;0.60;;;10.20;99.90;;;;;;6195857;23;20008;-70
2024/01/04 01:31:42;;;;;;;0.68;0.60;;;10.20;99.90;;;;;;6193726;23;20016;-70
2024/01/04 01:34:08;;;;;;;0.88;0.70;;;10.20;99.90;;;;;;6194060;23;20009;-71
2024/01/04 01:36:34;;;;;;;2.60;0.90;;;10.20;99.90;;;;;;6198068;23;20005;-70
2024/01/04 01:39:00;;;;;;;1.35;1.05;;;10.10;99.90;;;;;;6199302;23;20381;-70
2024/01/04 01:41:25;;;;;;;1.85;0.80;;;10.00;99.90;;;;;;6196372;23;20000;-70
2024/01/04 01:43:51;;;;;;;0.95;0.68;;;9.90;99.90;;;;;;6193498;23;20092;-70
2024/01/04 01:46:18;;;;;;;2.70;0.88;;;9.90;99.90;;;;;;6196482;23;20043;-70
2024/01/04 01:48:43;;;;;;;1.20;0.70;;;9.90;99.90;;;;;;6195805;23;20071;-68
2024/01/04 01:51:10;;;;;;;1.42;0.80;;;9.80;99.90;;;;;;6194942;23;20001;-70
2024/01/04 01:53:36;;;;;;;0.93;0.70;;;9.80;99.90;;;;;;6195787;23;20015;-69
2024/01/04 01:56:03;;;;;;;1.90;0.57;;;9.80;99.90;;;;;;6194222;23;20205;-69
2024/01/04 01:58:28;;;;;;;2.55;0.88;;;9.70;99.90;;;;;;6193504;23;20437;-69
2024/01/04 02:00:54;;;;;;;1.60;1.00;;;9.70;99.90;;;;;;6192334;23;20036;-69
2024/01/04 02:03:21;;;;;;;1.42;0.98;;;9.70;99.90;;;;;;6193991;23;20012;-69
2024/01/04 02:05:47;;;;;;;1.75;1.10;;;9.70;99.90;;;;;;6195348;23;20004;-69
2024/01/04 02:08:13;;;;;;;1.88;0.80;;;9.60;99.90;;;;;;6196904;23;20074;-69
2024/01/04 02:10:39;;;;;;;1.60;1.20;;;9.60;99.90;;;;;;6196525;23;20144;-69
2024/01/04 02:13:05;;;;;;;2.58;1.08;;;9.60;99.90;;;;;;6187826;23;20287;-69
2024/01/04 02:15:30;;;;;;;4.75;1.30;;;9.60;99.90;;;;;;6194947;23;20004;-69
2024/01/04 02:17:56;;;;;;;4.38;1.20;;;9.60;99.90;;;;;;6196096;23;20043;-68
2024/01/04 02:20:22;;;;;;;2.70;1.30;;;9.60;99.90;;;;;;6194298;23;20124;-68
2024/01/04 02:22:51;;;;;;;2.03;1.10;;;9.50;99.90;;;;;;6193559;23;20440;-69
2024/01/04 02:25:17;;;;;;;2.15;0.90;;;9.50;99.90;;;;;;6197144;23;20099;-68
2024/01/04 02:27:42;;;;;;;1.95;1.10;;;9.50;99.90;;;;;;6196189;23;20103;-69
2024/01/04 02:30:08;;;;;;;1.38;0.93;;;9.50;99.90;;;;;;6194850;23;20024;-69
2024/01/04 02:32:34;;;;;;;2.33;1.05;;;9.50;99.90;;;;;;6196624;23;20008;-69
2024/01/04 02:34:59;;;;;;;3.80;1.63;;;9.50;99.90;;;;;;6195611;23;20469;-68
2024/01/04 02:37:25;;;;;;;5.10;1.70;;;9.60;99.90;;;;;;6187497;23;20098;-67
2024/01/04 02:39:51;;;;;;;2.70;1.40;;;9.60;99.90;;;;;;6192445;23;20009;-67
2024/01/04 02:42:16;;;;;;;2.97;1.55;;;9.50;99.90;;;;;;6196740;23;20405;-67
2024/01/04 02:44:43;;;;;;;3.00;1.10;;;9.50;99.90;;;;;;6190695;23;20017;-67
2024/01/04 02:47:08;;;;;;;3.28;0.90;;;9.40;99.90;;;;;;6195509;23;20103;-68
2024/01/04 02:49:34;;;;;;;2.25;1.10;;;9.30;99.90;;;;;;6190676;23;20092;-67
2024/01/04 02:51:59;;;;;;;2.22;1.13;;;9.30;99.90;;;;;;6194683;23;20099;-68
2024/01/04 02:54:25;;;;;;;1.85;0.98;;;9.30;99.90;;;;;;6191744;23;20020;-68
2024/01/04 02:56:51;;;;;;;2.65;0.82;;;9.30;99.90;;;;;;6194429;23;20004;-68
2024/01/04 02:59:16;;;;;;;2.65;1.00;;;9.40;99.90;;;;;;6193168;23;20024;-68
2024/01/04 03:01:44;;;;;;;3.28;1.08;;;9.40;99.90;;;;;;6196611;23;20642;-67
2024/01/04 03:04:09;;;;;;;2.60;1.10;;;9.40;99.90;;;;;;6190034;23;20309;-68
2024/01/04 03:06:35;;;;;;;3.97;1.40;;;9.40;99.90;;;;;;6192738;23;20303;-68
2024/01/04 03:09:00;;;;;;;2.13;0.90;;;9.40;99.90;;;;;;6192462;23;20011;-68
2024/01/04 03:11:26;;;;;;;1.10;0.80;;;9.40;99.90;;;;;;6194801;23;20477;-68
2024/01/04 03:13:52;;;;;;;3.60;1.00;;;9.40;99.90;;;;;;6196509;23;20034;-68
2024/01/04 03:16:20;;;;;;;4.30;1.08;;;9.40;99.90;;;;;;6195268;23;20032;-68
2024/01/04 03:18:45;;;;;;;3.83;1.02;;;9.40;99.90;;;;;;6190267;23;20005;-68
2024/01/04 03:21:11;;;;;;;2.92;0.95;;;9.40;99.90;;;;;;6190028;23;20008;-69
2024/01/04 03:23:36;;;;;;;2.25;0.82;;;9.30;99.90;;;;;;6193207;23;20016;-65
2024/01/04 03:26:02;;;;;;;1.73;1.15;;;9.30;99.90;;;;;;6192456;23;20001;-66
2024/01/04 03:28:28;;;;;;;2.38;0.90;;;9.30;99.90;;;;;;6192178;23;20047;-66
2024/01/04 03:30:53;;;;;;;4.03;1.40;;;9.30;99.90;;;;;;6188363;23;20012;-66
2024/01/04 03:33:19;;;;;;;1.75;1.20;;;9.20;99.90;;;;;;6189433;23;20012;-65
2024/01/04 03:35:44;;;;;;;3.17;0.90;;;9.00;99.90;;;;;;6192768;23;20000;-66
2024/01/04 03:38:10;;;;;;;2.40;1.10;;;8.90;99.90;;;;;;6192755;23;20494;-66
2024/01/04 03:40:36;;;;;;;1.67;0.98;;;8.90;99.90;;;;;;6191041;23;20481;-66
2024/01/04 03:43:03;;;;;;;2.42;1.10;;;8.80;99.90;;;;;;6191914;23;20626;-66
2024/01/04 03:45:30;;;;;;;1.85;1.20;;;8.80;99.90;;;;;;6191330;23;20051;-66
2024/01/04 03:47:56;;;;;;;1.40;0.88;;;8.80;99.90;;;;;;6195409;23;20008;-65
2024/01/04 03:50:21;;;;;;;2.35;1.00;;;8.80;99.90;;;;;;6193446;23;20077;-66
2024/01/04 03:52:47;;;;;;;2.00;0.90;;;8.80;99.90;;;;;;6190743;23;20015;-66
2024/01/04 03:55:15;;;;;;;2.03;1.00;;;8.70;99.90;;;;;;6192181;23;20007;-66
2024/01/04 03:57:42;;;;;;;2.25;0.77;;;8.70;99.90;;;;;;6191458;23;20202;-65
2024/01/04 04:00:09;;;;;;;1.60;0.90;;;8.70;99.90;;;;;;6191693;23;20001;-66
2024/01/04 04:02:35;;;;;;;2.10;0.82;;;8.70;99.90;;;;;;6190951;23;20783;-66
2024/01/04 04:05:00;;;;;;;2.25;1.30;;;8.70;99.90;;;;;;6189854;23;20000;-66
2024/01/04 04:07:26;;;;;;;2.63;1.17;;;8.60;99.90;;;;;;6190907;23;20449;-66
2024/01/04 04:09:52;;;;;;;2.08;1.17;;;8.60;99.90;;;;;;6190702;23;20012;-66
2024/01/04 04:12:18;;;;;;;2.75;1.10;;;8.60;99.90;;;;;;6193014;23;20008;-66
2024/01/04 04:14:43;;;;;;;3.60;1.05;;;8.60;99.90;;;;;;6193377;23;20465;-66
2024/01/04 04:17:09;;;;;;;2.35;0.85;;;8.60;99.90;;;;;;6195809;23;20005;-66
2024/01/04 04:19:34;;;;;;;1.05;0.70;;;8.60;99.90;;;;;;6194525;23;20457;-72
2024/01/04 04:22:00;;;;;;;1.13;0.43;;;8.70;99.90;;;;;;6191013;23;20070;-70
2024/01/04 04:24:25;;;;;;;0.45;0.38;;;8.90;99.90;;;;;;6191103;23;20012;-70
2024/01/04 04:26:51;;;;;;;0.32;0.20;;;9.20;99.90;;;;;;6192248;23;20422;-70
2024/01/04 04:29:17;;;;;;;1.08;0.30;;;9.40;99.90;;;;;;6194219;23;20016;-70
2024/01/04 04:31:43;;;;;;;1.40;0.32;;;9.60;99.90;;;;;;6193890;23;20309;-69
2024/01/04 04:34:09;;;;;;;0.32;0.13;;;9.80;99.90;;;;;;6192282;23;20059;-69
2024/01/04 04:36:34;;;;;;;0.30;0.28;;;9.80;99.90;;;;;;6196417;23;20031;-67
2024/01/04 04:39:02;;;;;;;0.38;0.10;;;10.00;99.90;;;;;;6192451;23;20333;-66
2024/01/04 04:41:28;;;;;;;0.90;0.43;;;10.10;99.90;;;;;;6192954;23;20015;-65
2024/01/04 04:43:53;;;;;;;0.35;0.32;;;10.10;99.90;;;;;;6191109;23;20020;-65
2024/01/04 04:46:19;;;;;;;0.95;0.50;;;10.10;99.90;;;;;;6191784;23;20019;-66
2024/01/04 04:48:45;;;;;;;1.27;0.60;;;10.00;99.90;;;;;;6195409;23;20111;-66
2024/01/04 04:51:11;;;;;;;0.60;0.40;;;10.00;99.90;;;;;;6192297;23;20123;-65
2024/01/04 04:53:36;;;;;;;0.88;0.50;;;9.90;99.90;;;;;;6193136;23;20039;-66
2024/01/04 04:56:03;;;;;;;0.47;0.40;;;9.90;99.90;;;;;;6192462;23;20100;-71
2024/01/04 04:58:29;;;;;;;0.60;0.40;;;10.10;99.90;;;;;;6194025;23;20420;-71
2024/01/04 05:00:56;;;;;;;1.65;0.68;;;10.20;99.90;;;;;;6194449;23;20608;-71
2024/01/04 05:03:22;;;;;;;0.40;0.30;;;10.20;99.90;;;;;;6194296;23;20070;-70
2024/01/04 05:05:48;;;;;;;0.60;0.22;;;10.20;99.90;;;;;;6194833;23;20000;-71
2024/01/04 05:08:13;;;;;;;1.52;0.30;;;10.10;99.90;;;;;;6197385;23;20072;-70
2024/01/04 05:10:39;;;;;;;1.05;0.28;;;10.10;99.90;;;;;;6195133;23;20484;-70
2024/01/04 05:13:05;;;;;;;1.40;0.20;;;10.20;99.90;;;;;;6196364;23;20013;-67
2024/01/04 05:15:30;;;;;;;1.02;0.30;;;10.20;99.90;;;;;;6195943;23;20066;-67
2024/01/04 05:17:56;;;;;;;1.60;0.30;;;10.20;99.90;;;;;;6198390;23;20193;-66
2024/01/04 05:20:21;;;;;;;1.70;0.30;;;10.20;99.90;;;;;;6193039;23;20096;-66
2024/01/04 05:22:48;;;;;;;1.17;0.20;;;10.10;99.90;;;;;;6196571;23;20064;-66
2024/01/04 05:25:14;;;;;;;0.95;0.25;;;10.20;99.90;;;;;;6196155;23;20039;-70
2024/01/04 05:27:40;;;;;;;1.35;0.28;;;10.10;99.90;;;;;;6199136;23;20009;-71
2024/01/04 05:30:07;;;;;;;1.95;0.25;;;10.10;99.90;;;;;;6194959;23;20073;-70
2024/01/04 05:32:34;;;;;;;2.05;0.20;;;10.20;99.90;;;;;;6196728;23;20095;-71
2024/01/04 05:35:00;;;;;;;0.20;0.05;;;10.20;99.90;;;;;;6196696;23;20008;-68
2024/01/04 05:37:25;;;;;;;1.38;0.10;;;10.30;99.90;;;;;;6194994;23;20083;-70
2024/01/04 05:39:51;;;;;;;1.65;0.63;;;10.30;99.90;;;;;;6198590;23;20040;-70
2024/01/04 05:42:16;;;;;;;0.35;0.17;;;10.30;99.90;;;;;;6196068;23;20031;-70
2024/01/04 05:44:42;;;;;;;0.20;0.20;;;10.20;99.90;;;;;;6194202;23;20028;-72
2024/01/04 05:47:08;;;;;;;0.20;0.20;;;10.20;99.90;;;;;;6196401;23;20105;-71
2024/01/04 05:49:33;;;;;;;1.27;0.20;;;10.20;99.90;;;;;;6198030;23;20382;-70
2024/01/04 05:51:59;;;;;;;1.23;0.57;;;10.30;99.90;;;;;;6198650;23;20024;-66
2024/01/04 05:54:24;;;;;;;0.38;0.10;;;10.20;99.90;;;;;;6193472;23;20673;-68
2024/01/04 05:56:50;;;;;;;0.30;0.10;;;10.30;99.90;;;;;;6196827;23;20051;-67
2024/01/04 05:59:16;;;;;;;0.30;0.28;;;10.30;99.90;;;;;;6196383;23;20016;-67
2024/01/04 06:01:41;;;;;;;0.17;0.10;;;10.30;99.90;;;;;;6194937;23;20482;-70
2024/01/04 06:04:07;;;;;;;1.25;0.20;;;10.30;99.90;;;;;;6194715;23;20016;-67
2024/01/04 06:06:33;;;;;;;0.20;0.15;;;10.30;99.90;;;;;;6196919;23;20096;-71
2024/01/04 06:08:58;;;;;;;0.32;0.10;;;10.30;99.90;;;;;;6194332;23;20047;-67
2024/01/04 06:11:24;;;;;;;0.52;0.10;;;10.30;99.90;;;;;;6194770;23;20005;-69
2024/01/04 06:13:50;;;;;;;3.08;0.17;;;10.20;99.90;;;;;;6195824;23;20011;-66
2024/01/04 06:16:17;;;;;;;1.98;0.40;;;10.10;99.90;;;;;;6198363;23;20016;-67
2024/01/04 06:18:43;;;;;;;0.30;0.13;;;10.10;99.90;;;;;;6195104;23;20017;-67
2024/01/04 06:21:08;;;;;;;0.57;0.20;;;10.10;99.90;;;;;;6194122;23;20617;-66
2024/01/04 06:23:34;;;;;;;0.38;0.13;;;10.10;99.90;;;;;;6196579;23;20158;-66
2024/01/04 06:26:00;;;;;;;0.30;0.20;;;10.00;99.90;;;;;;6195596;23;20039;-70
2024/01/04 06:28:25;;;;;;;0.70;0.10;;;10.00;99.90;;;;;;6195143;23;20011;-75
2024/01/04 06:30:51;;;;;;;0.10;0.10;;;10.00;99.90;;;;;;6194759;23;20028;-79
2024/01/04 06:33:17;;;;;;;1.05;0.20;;;10.00;99.90;;;;;;6197884;23;20009;-70
2024/01/04 06:35:43;;;;;;;0.10;0.10;;;9.90;99.90;;;;;;6195810;23;20019;-71
2024/01/04 06:38:09;;;;;;;0.20;0.10;;;9.90;99.90;;;;;;6196858;23;20346;-69
2024/01/04 06:40:35;;;;;;;0.17;0.03;;;10.00;99.90;;;;;;6195039;23;20533;-70
2024/01/04 06:43:03;;;;;;;0.10;0.10;;;10.00;99.90;;;;;;6194516;23;20016;-72
2024/01/04 06:45:29;;;;;;;0.40;0.10;;;10.00;99.90;;;;;;6197609;23;20016;-66
2024/01/04 06:47:55;;;;;;;0.80;0.20;;;10.00;99.90;;;;;;6198372;23;20422;-65
2024/01/04 06:50:22;;;;;;;0.75;0.10;;;10.00;99.90;;;;;;6192503;23;20075;-66
2024/01/04 06:52:48;;;;;;;0.10;0.00;;;10.00;99.90;;;;;;6194920;23;20027;-66
2024/01/04 06:55:15;;;;;;;0.95;0.20;;;10.00;99.90;;;;;;6198094;23;20005;-66
2024/01/04 06:57:41;;;;;;;1.27;0.00;;;10.00;99.90;;;;;;6194155;23;20004;-66
2024/01/04 07:00:07;;;;;;;0.10;0.00;;;10.00;99.90;;;;;;6194406;23;20569;-66
2024/01/04 07:02:35;;;;;;;0.60;0.20;;;10.00;99.90;;;;;;6193155;23;20071;-71
2024/01/04 07:05:05;;;;;;;0.68;0.10;;;10.00;99.90;;;;;;6195431;23;20146;-71
2024/01/04 07:07:32;;;;;;;0.93;0.10;;;10.00;99.90;;;;;;6197087;23;20009;-71
2024/01/04 07:09:57;;;;;;;0.20;0.03;;;9.90;99.90;;;;;;6198960;23;20004;-73
2024/01/04 07:12:25;;;;;;;0.32;0.30;;;10.00;99.90;;;;;;6194968;23;20054;-68
2024/01/04 07:14:51;;;;;;;1.50;0.20;;;10.00;99.90;;;;;;6198395;23;20036;-69
2024/01/04 07:17:16;;;;;;;0.00;0.00;;;10.00;99.90;;;;;;6200293;23;20055;-71
2024/01/04 07:19:45;;;;;;;0.75;0.30;;;10.10;99.90;;;;;;6197374;23;20016;-70
2024/01/04 07:22:12;;;;;;;0.13;0.10;;;10.10;99.90;;;;;;6194147;23;20011;-72
2024/01/04 07:24:38;;;;;;;0.10;0.10;;;10.10;99.90;;;;;;6198584;23;20083;-69
2024/01/04 07:27:04;;;;;;;1.35;0.10;;;10.20;99.90;;;;;;6198659;23;20024;-73
2024/01/04 07:29:31;;;;;;;1.02;0.10;;;10.20;99.90;;;;;;6198674;23;20004;-70
2024/01/04 07:31:56;;;;;;;1.13;0.25;;;10.20;99.90;;;;;;6188652;23;20461;-68
2024/01/04 07:34:22;;;;;;;0.15;0.05;;;10.30;99.90;;;;;;6193802;23;20085;-77
2024/01/04 07:36:48;;;;;;;1.75;0.15;;;10.40;99.90;;;;;;6190052;23;20500;-70
2024/01/04 07:39:15;;;;;;;1.05;0.30;;;10.50;99.90;;;;;;6196379;23;20086;-69
2024/01/04 07:41:42;;;;;;;0.43;0.43;;;10.50;99.90;;;;;;6197161;23;20133;-65
2024/01/04 07:44:10;;;;;;;0.22;0.20;;;10.50;99.90;;;;;;6190635;23;20623;-68
2024/01/04 07:46:36;;;;;;;2.75;0.10;;;10.60;99.90;;;;;;6192463;23;20186;-66
2024/01/04 07:49:03;;;;;;;0.20;0.17;;;10.60;99.90;;;;;;6194237;23;20612;-70
2024/01/04 07:51:29;;;;;;;0.10;0.10;;;10.60;99.90;;;;;;6191794;23;20007;-69
2024/01/04 07:53:55;;;;;;;0.57;0.20;;;10.60;99.90;;;;;;6194750;23;20005;-64
2024/01/04 07:56:20;;;;;;;1.50;0.10;;;10.70;99.90;;;;;;6194588;23;20007;-67
2024/01/04 07:58:46;;;;;;;0.22;0.22;;;10.70;99.90;;;;;;6192448;23;20721;-76
2024/01/04 08:01:12;;;;;;;0.55;0.25;;;10.70;99.90;;;;;;6190313;23;20000;-65
2024/01/04 08:03:38;;;;;;;1.38;0.30;;;10.70;99.90;;;;;;6188427;23;20012;-65
2024/01/04 08:06:05;;;;;;;2.70;0.10;;;10.50;99.90;;;;;;6193305;23;20008;-65
2024/01/04 08:08:31;;;;;;;0.77;0.17;;;10.50;99.90;;;;;;6187951;23;20009;-68
2024/01/04 08:10:56;;;;;;;0.55;0.30;;;10.40;99.90;;;;;;6189357;23;20495;-68
2024/01/04 08:13:22;;;;;;;4.13;0.40;;;10.30;99.90;;;;;;6186010;23;20727;-71
2024/01/04 08:15:47;;;;;;;0.77;0.20;;;10.30;99.90;;;;;;6187349;23;20044;-70
2024/01/04 08:18:14;;;;;;;0.57;0.10;;;10.20;99.90;;;;;;6186512;23;20009;-68
2024/01/04 08:20:39;;;;;;;0.73;0.00;;;10.10;99.90;;;;;;6181047;23;20478;-67
2024/01/04 08:23:05;;;;;;;0.73;0.25;;;10.20;99.90;;;;;;6186160;23;20013;-67
2024/01/04 08:25:31;;;;;;;0.65;0.13;;;10.20;99.90;;;;;;6183860;23;20005;-67
2024/01/04 08:27:57;;;;;;;0.30;0.20;;;10.20;99.90;;;;;;6184902;23;20486;-67
2024/01/04 08:30:22;;;;;;;1.63;0.38;;;10.20;99.90;;;;;;6185595;23;20104;-67
2024/01/04 08:32:48;;;;;;;1.42;0.30;;;10.20;99.90;;;;;;6188384;23;20009;-68
2024/01/04 08:35:17;;;;;;;0.10;0.10;;;10.10;99.90;;;;;;6189127;23;20013;-73
2024/01/04 08:37:45;;;;;;;0.77;0.10;;;10.20;99.90;;;;;;6189256;23;20016;-70
2024/01/04 08:40:11;;;;;;;0.75;0.20;;;10.40;99.90;;;;;;6195190;23;20027;-73
2024/01/04 08:42:37;;;;;;;0.80;0.13;;;10.50;99.90;;;;;;6195150;23;20020;-70
2024/01/04 08:45:04;;;;;;;2.03;0.20;;;10.60;99.90;;;;;;6192164;23;20020;-73
2024/01/04 08:47:30;;;;;;;1.30;0.28;;;10.70;99.90;;;;;;6196209;23;20364;-72
2024/01/04 08:50:00;;;;;;;0.10;0.10;;;10.60;99.90;;;;;;6189397;23;20004;-73
2024/01/04 08:52:26;;;;;;;1.15;0.30;;;10.60;99.90;;;;;;6193235;23;20031;-75
2024/01/04 08:54:52;;;;;;;2.42;0.17;;;10.50;99.90;;;;;;6194612;23;20036;-72
2024/01/04 08:57:17;;;;;;;2.05;0.25;;;10.50;99.90;;;;;;6191620;23;20079;-72
2024/01/04 08:59:43;;;;;;;0.90;0.10;;;10.50;99.90;;;;;;6192203;23;20009;-74
2024/01/04 09:02:09;;;;;;;0.17;0.10;;;10.60;99.90;;;;;;6186272;23;20037;-72
2024/01/04 09:04:34;;;;;;;0.95;0.17;;;10.60;99.90;;;;;;6191709;23;20005;-72
2024/01/04 09:07:00;;;;;;;4.65;0.13;;;10.60;99.90;;;;;;6192426;23;20012;-72
2024/01/04 09:09:26;;;;;;;0.43;0.10;;;10.50;99.90;;;;;;6195036;23;20032;-71
2024/01/04 09:11:52;;;;;;;0.10;0.10;;;10.60;99.90;;;;;;6192310;23;20005;-75
2024/01/04 09:14:17;;;;;;;0.40;0.10;;;10.60;99.90;;;;;;6196046;23;20001;-76
2024/01/04 09:16:44;;;;;;;0.50;0.30;;;10.50;99.90;;;;;;6192040;23;20013;-72
2024/01/04 09:19:14;;;;;;;0.40;0.30;;;10.50;99.90;;;;;;6192023;23;20001;-71
2024/01/04 09:21:41;;;;;;;0.95;0.10;;;10.30;99.90;;;;;;6192652;23;20009;-71
2024/01/04 09:24:07;;;;;;;0.50;0.10;;;10.30;99.90;;;;;;6194838;23;20017;-74
2024/01/04 09:26:32;;;;;;;0.77;0.40;;;10.30;99.90;;;;;;6194752;23;20322;-71
2024/01/04 09:28:58;;;;;;;0.20;0.10;;;10.30;99.90;;;;;;6191928;23;20038;-72
2024/01/04 09:31:23;;;;;;;0.57;0.20;;;10.30;99.90;;;;;;6198842;23;20356;-66
2024/01/04 09:33:49;;;;;;;0.17;0.00;;;10.40;99.90;;;;;;6193583;23;20420;-68
2024/01/04 09:36:15;;;;;;;0.35;0.20;;;10.40;99.90;;;;;;6193614;23;20402;-68
2024/01/04 09:38:41;;;;;;;0.40;0.03;;;10.50;99.90;;;;;;6196528;23;20005;-67
2024/01/04 09:41:33;;;;;;;0.22;0.10;;;10.50;99.90;;;;;;6188646;23;20112;-68
2024/01/04 09:44:06;;;;;;;;;;;10.40;99.90;;;;;;6175732;23;20021;-68
2024/01/04 09:46:41;;;;;;;0.10;0.10;;;10.40;99.90;;;;;;6158780;23;20328;-69
2024/01/04 09:49:13;;;;;;;1.95;0.73;;;;;;;;;;6162634;23;20001;-66
2024/01/04 09:51:40;;;;;;;0.93;0.13;;;10.00;99.90;;;;;;6166307;23;20012;-74
2024/01/04 09:54:08;;;;;;;0.28;0.10;;;9.80;99.90;;;;;;6165919;23;20001;-67
2024/01/04 09:56:39;;;;;;;0.45;0.35;;;10.60;99.90;;;;;;6165726;23;20008;-68
2024/01/04 09:59:05;;;;;;;0.70;0.30;;;9.90;99.90;;;;;;6165166;23;20048;-67
2024/01/04 10:01:35;;;;;;;0.40;0.20;;;9.70;99.90;;;;;;6159881;23;20015;-67
2024/01/04 10:04:11;;;;;;;0.65;0.30;;;9.80;99.90;;;;;;6161698;23;20017;-68
2024/01/04 10:06:38;;;;;;;0.75;0.30;;;10.00;99.90;;;;;;6134826;23;20028;-67
2024/01/04 10:09:04;;;;;;;0.28;0.20;;;10.10;99.90;;;;;;6166895;23;20009;-69
2024/01/04 10:11:36;;;;;;;1.83;0.40;;;10.20;99.90;;;;;;6166668;23;20027;-70
2024/01/04 10:14:03;;;;;;;1.90;0.20;;;10.30;99.90;;;;;;6165156;23;20588;-77
2024/01/04 10:16:31;;;;;;;1.30;0.20;;;10.30;99.90;;;;;;6163455;23;20071;-69
2024/01/04 10:18:58;;;;;;;1.75;0.35;;;10.30;99.90;;;;;;6164368;23;20027;-66
2024/01/04 10:21:31;;;;;;;0.68;0.30;;;10.30;99.90;;;;;;6165288;23;20032;-69
2024/01/04 10:24:00;;;;;;;0.40;0.20;;;10.30;99.90;;;;;;6165424;23;20052;-70
2024/01/04 10:26:27;;;;;;;0.40;0.20;;;10.30;99.90;;;;;;6159667;23;20056;-67
2024/01/04 10:28:56;;;;;;;0.35;0.13;;;10.30;99.90;;;;;;6165541;23;20017;-70
2024/01/04 10:31:22;;;;;;;0.22;0.20;;;10.30;99.90;;;;;;6164405;23;20009;-69
2024/01/04 10:33:58;;;;;;;0.85;0.20;;;10.20;99.90;;;;;;6167071;23;20019;-69
2024/01/04 10:36:28;;;;;;;0.40;0.20;;;10.20;99.90;;;;;;6162987;23;20103;-70
2024/01/04 10:39:08;;;;;;;1.05;0.13;;;10.30;99.90;;;;;;6166008;23;20072;-71
2024/01/04 10:41:33;;;;;;;0.52;0.32;;;10.30;99.90;;;;;;6166759;23;20012;-67
2024/01/04 10:44:06;;;;;;;0.40;0.10;;;10.40;99.90;;;;;;6165397;23;20013;-69
2024/01/04 10:46:35;;;;;;;1.90;0.35;;;10.40;99.90;;;;;;6195941;23;20012;-67
2024/01/04 10:49:02;;;;;;;0.40;0.28;;;10.50;99.90;;;;;;6191869;23;20364;-68
2024/01/04 10:51:30;;;;;;;2.38;0.25;;;10.40;99.90;;;;;;6194578;23;20012;-65
2024/01/04 10:54:01;;;;;;;1.55;0.25;;;10.40;99.90;;;;;;6197325;23;20053;-69
2024/01/04 10:56:32;;;;;;;0.52;0.10;;;10.40;99.90;;;;;;6193306;23;20011;-75
2024/01/04 10:58:59;;;;;;;0.52;0.20;;;10.50;99.90;;;;;;6195640;23;20515;-68
2024/01/04 11:01:25;;;;;;;0.25;0.13;;;10.50;99.90;;;;;;6192452;23;20005;-68
2024/01/04 11:03:54;;;;;;;0.70;0.25;;;10.60;99.90;;;;;;6194468;23;20004;-73
2024/01/04 11:06:23;;;;;;;0.30;0.17;;;10.60;99.90;;;;;;6191295;23;20196;-71
2024/01/04 11:08:50;;;;;;;2.42;0.25;;;10.70;99.90;;;;;;6188119;23;20520;-71
2024/01/04 11:11:18;;;;;;;0.63;0.20;;;10.80;99.90;;;;;;6186054;23;20104;-72
2024/01/04 11:13:44;;;;;;;0.35;0.20;;;10.90;99.90;;;;;;6193575;23;20158;-73
2024/01/04 11:16:36;;;;;;;0.52;0.30;;;10.90;99.90;;;;;;6161693;23;20036;-71
2024/01/04 11:19:35;;;;;;;1.42;0.43;;;11.00;99.90;;;;;;6191873;23;20233;-71
2024/01/04 11:22:26;;;;;;;1.27;0.30;;;11.00;99.90;;;;;;6191785;23;20334;-75
2024/01/04 11:25:06;;;;;;;0.63;0.20;;;11.00;99.90;;;;;;6194438;23;20024;-73
2024/01/04 11:27:32;;;;;;;0.45;0.17;;;10.90;99.90;;;;;;6191075;23;20095;-72
2024/01/04 11:29:58;;;;;;;2.78;1.08;;;10.80;99.90;;;;;;6193243;23;20007;-72
2024/01/04 11:32:24;;;;;;;0.10;0.10;;;10.80;99.90;;;;;;6190550;23;20009;-71
2024/01/04 11:34:49;;;;;;;1.25;0.40;;;10.70;99.90;;;;;;6190290;23;20016;-76
2024/01/04 11:37:23;;;;;;;0.20;0.20;;;10.70;99.90;;;;;;6189007;23;20009;-71
2024/01/04 11:40:05;;;;;;;0.15;0.15;;;10.60;99.90;;;;;;6193764;23;20076;-70
2024/01/04 11:42:41;;;;;;;1.35;0.40;;;10.60;99.90;;;;;;6169174;23;20013;-69
2024/01/04 11:45:14;;;;;;;0.20;0.20;;;10.50;99.90;;;;;;6191820;23;20012;-71
2024/01/04 11:47:43;;;;;;;0.60;0.38;;;10.40;99.90;;;;;;6193434;23;20005;-68
2024/01/04 11:50:15;;;;;;;0.32;0.20;;;10.50;99.90;;;;;;6197517;23;20008;-67
2024/01/04 11:52:41;;;;;;;0.20;0.20;;;10.40;99.90;;;;;;6193183;23;20338;-66
2024/01/04 11:55:07;;;;;;;0.65;0.30;;;10.30;99.90;;;;;;6189112;23;20311;-68
2024/01/04 11:57:34;;;;;;;0.20;0.10;;;10.30;99.90;;;;;;6194184;23;20013;-69
2024/01/04 12:00:11;;;;;;;0.38;0.30;;;10.30;99.90;;;;;;6187849;23;20751;-71
2024/01/04 12:02:37;;;;;;;1.00;0.22;;;10.30;99.90;;;;;;6193624;23;20024;-70
2024/01/04 12:05:03;;;;;;;0.30;0.10;;;10.40;99.90;;;;;;6197306;23;20065;-76
2024/01/04 12:07:30;;;;;;;0.68;0.30;;;10.50;99.90;;;;;;6196414;23;20017;-75
2024/01/04 12:09:59;;;;;;;0.10;0.10;;;10.50;99.90;;;;;;6193314;23;20005;-75
2024/01/04 12:12:25;;;;;;;0.52;0.15;;;10.60;99.90;;;;;;6195379;23;20015;-73
2024/01/04 12:14:50;;;;;;;0.70;0.40;;;10.60;99.90;;;;;;6193332;23;20005;-71
2024/01/04 12:17:16;;;;;;;0.10;0.10;;;10.60;99.90;;;;;;6199532;23;20005;-73
2024/01/04 12:19:42;;;;;;;1.88;0.30;;;10.60;99.90;;;;;;6196284;23;20076;-71
2024/01/04 12:22:07;;;;;;;0.30;0.15;;;10.60;99.90;;;;;;6193467;23;20015;-76
2024/01/04 12:24:34;;;;;;;0.30;0.20;;;10.70;99.90;;;;;;6195248;23;20080;-66
2024/01/04 12:26:59;;;;;;;0.20;0.20;;;10.70;99.90;;;;;;6193369;23;20009;-68
2024/01/04 12:29:25;;;;;;;0.65;0.20;;;10.70;99.90;;;;;;6196745;23;20058;-73
2024/01/04 12:31:51;;;;;;;0.30;0.20;;;10.70;99.90;;;;;;6191125;23;20217;-74
2024/01/04 12:34:18;;;;;;;0.40;0.20;;;10.60;99.90;;;;;;6194173;23;20008;-72
2024/01/04 12:36:45;;;;;;;1.10;0.15;;;10.60;99.90;;;;;;6193400;23;20020;-74
2024/01/04 12:39:14;;;;;;;0.70;0.20;;;10.40;99.90;;;;;;6195485;23;20009;-70
2024/01/04 12:41:44;;;;;;;0.98;0.20;;;10.40;99.90;;;;;;6191898;23;20433;-74
2024/01/04 12:44:10;;;;;;;1.40;0.10;;;10.30;99.90;;;;;;6194761;23;20100;-76
2024/01/04 12:46:36;;;;;;;0.38;0.10;;;10.30;99.90;;;;;;6193258;23;20040;-73
2024/01/04 12:49:07;;;;;;;0.28;0.20;;;10.30;99.90;;;;;;6197562;23;20054;-72